sensor_id;sensor_type;location;lat;lon;timestamp;P1;P2;P0
67892;PMS7003;54688;52.376;16.744;2022-10-16T00:00:19;28;24;
67892;PMS7003;54688;52.376;16.744;2022-10-16T00:04:01;30;24;
67892;PMS7003;54688;52.376;16.744;2022-10-16T00:07:03;26;21;
67892;PMS7003;54688;52.376;16.744;2022-10-16T00:10:06;25;21;
67892;PMS7003;54688;52.376;16.744;2022-10-16T00:13:08;27;25;
67892;PMS7003;54688;52.376;16.744;2022-10-16T00:16:11;23;18;
67892;PMS7003;54688;52.376;16.744;2022-10-16T00:19:13;22;18;
67892;PMS7003;54688;52.376;16.744;2022-10-16T00:22:15;30;22;
67892;PMS7003;54688;52.376;16.744;2022-10-16T00:25:17;23;20;
67892;PMS7003;54688;52.376;16.744;2022-10-16T00:28:18;23;21;
67892;PMS7003;54688;52.376;16.744;2022-10-16T00:31:23;20;17;
67892;PMS7003;54688;52.376;16.744;2022-10-16T00:34:25;25;20;
67892;PMS7003;54688;52.376;16.744;2022-10-16T00:37:27;25;22;
67892;PMS7003;54688;52.376;16.744;2022-10-16T00:40:29;23;20;
67892;PMS7003;54688;52.376;16.744;2022-10-16T00:43:36;21;17;
67892;PMS7003;54688;52.376;16.744;2022-10-16T00:46:39;24;18;
67892;PMS7003;54688;52.376;16.744;2022-10-16T00:49:42;22;20;
67892;PMS7003;54688;52.376;16.744;2022-10-16T00:52:47;20;19;
67892;PMS7003;54688;52.376;16.744;2022-10-16T00:55:50;18;17;
67892;PMS7003;54688;52.376;16.744;2022-10-16T00:58:52;22;18;
67892;PMS7003;54688;52.376;16.744;2022-10-16T01:01:55;18;16;
67892;PMS7003;54688;52.376;16.744;2022-10-16T01:04:57;26;19;
67892;PMS7003;54688;52.376;16.744;2022-10-16T01:08:06;25;22;
67892;PMS7003;54688;52.376;16.744;2022-10-16T01:11:15;17;15;
67892;PMS7003;54688;52.376;16.744;2022-10-16T01:14:23;18;16;
67892;PMS7003;54688;52.376;16.744;2022-10-16T01:17:30;20;17;
67892;PMS7003;54688;52.376;16.744;2022-10-16T01:20:36;21;18;
67892;PMS7003;54688;52.376;16.744;2022-10-16T01:23:49;15;15;
67892;PMS7003;54688;52.376;16.744;2022-10-16T01:27:09;23;16;
67892;PMS7003;54688;52.376;16.744;2022-10-16T01:30:13;16;13;
67892;PMS7003;54688;52.376;16.744;2022-10-16T01:33:20;22;17;
67892;PMS7003;54688;52.376;16.744;2022-10-16T01:36:27;18;16;
67892;PMS7003;54688;52.376;16.744;2022-10-16T01:39:32;22;20;
67892;PMS7003;54688;52.376;16.744;2022-10-16T01:42:39;17;15;
67892;PMS7003;54688;52.376;16.744;2022-10-16T01:45:44;18;17;
67892;PMS7003;54688;52.376;16.744;2022-10-16T01:48:48;20;19;
67892;PMS7003;54688;52.376;16.744;2022-10-16T01:51:54;26;23;
67892;PMS7003;54688;52.376;16.744;2022-10-16T01:54:58;20;17;
67892;PMS7003;54688;52.376;16.744;2022-10-16T01:58:05;20;19;
67892;PMS7003;54688;52.376;16.744;2022-10-16T02:01:10;19;17;
67892;PMS7003;54688;52.376;16.744;2022-10-16T02:04:18;19;18;
67892;PMS7003;54688;52.376;16.744;2022-10-16T02:07:23;20;17;
67892;PMS7003;54688;52.376;16.744;2022-10-16T02:10:25;21;17;
67892;PMS7003;54688;52.376;16.744;2022-10-16T02:13:30;22;17;
67892;PMS7003;54688;52.376;16.744;2022-10-16T02:16:36;23;19;
67892;PMS7003;54688;52.376;16.744;2022-10-16T02:19:38;24;21;
67892;PMS7003;54688;52.376;16.744;2022-10-16T02:22:43;23;20;
67892;PMS7003;54688;52.376;16.744;2022-10-16T02:25:47;22;17;
67892;PMS7003;54688;52.376;16.744;2022-10-16T02:28:53;19;18;
67892;PMS7003;54688;52.376;16.744;2022-10-16T02:32:00;25;21;
67892;PMS7003;54688;52.376;16.744;2022-10-16T02:35:06;26;23;
67892;PMS7003;54688;52.376;16.744;2022-10-16T02:38:09;17;15;
67892;PMS7003;54688;52.376;16.744;2022-10-16T02:41:12;17;15;
67892;PMS7003;54688;52.376;16.744;2022-10-16T02:44:14;19;18;
67892;PMS7003;54688;52.376;16.744;2022-10-16T02:47:15;25;22;
67892;PMS7003;54688;52.376;16.744;2022-10-16T02:50:18;20;17;
67892;PMS7003;54688;52.376;16.744;2022-10-16T02:53:20;17;17;
67892;PMS7003;54688;52.376;16.744;2022-10-16T02:56:22;22;18;
67892;PMS7003;54688;52.376;16.744;2022-10-16T02:59:23;26;23;
67892;PMS7003;54688;52.376;16.744;2022-10-16T03:02:25;19;19;
67892;PMS7003;54688;52.376;16.744;2022-10-16T03:05:27;17;17;
67892;PMS7003;54688;52.376;16.744;2022-10-16T03:08:30;25;20;
67892;PMS7003;54688;52.376;16.744;2022-10-16T03:11:32;26;22;
67892;PMS7003;54688;52.376;16.744;2022-10-16T03:14:34;23;20;
67892;PMS7003;54688;52.376;16.744;2022-10-16T03:17:36;23;18;
67892;PMS7003;54688;52.376;16.744;2022-10-16T03:20:38;27;22;
67892;PMS7003;54688;52.376;16.744;2022-10-16T03:23:40;24;20;
67892;PMS7003;54688;52.376;16.744;2022-10-16T03:26:42;27;23;
67892;PMS7003;54688;52.376;16.744;2022-10-16T03:29:44;22;19;
67892;PMS7003;54688;52.376;16.744;2022-10-16T03:32:46;24;22;
67892;PMS7003;54688;52.376;16.744;2022-10-16T03:35:51;27;21;
67892;PMS7003;54688;52.376;16.744;2022-10-16T03:38:53;23;20;
67892;PMS7003;54688;52.376;16.744;2022-10-16T03:41:55;27;21;
67892;PMS7003;54688;52.376;16.744;2022-10-16T03:44:57;29;22;
67892;PMS7003;54688;52.376;16.744;2022-10-16T03:47:59;28;20;
67892;PMS7003;54688;52.376;16.744;2022-10-16T03:51:01;27;23;
67892;PMS7003;54688;52.376;16.744;2022-10-16T03:54:03;24;22;
67892;PMS7003;54688;52.376;16.744;2022-10-16T03:57:05;25;22;
67892;PMS7003;54688;52.376;16.744;2022-10-16T04:00:09;24;20;
67892;PMS7003;54688;52.376;16.744;2022-10-16T04:03:11;31;26;
67892;PMS7003;54688;52.376;16.744;2022-10-16T04:06:14;36;28;
67892;PMS7003;54688;52.376;16.744;2022-10-16T04:09:16;28;24;
67892;PMS7003;54688;52.376;16.744;2022-10-16T04:12:18;26;20;
67892;PMS7003;54688;52.376;16.744;2022-10-16T04:15:20;25;24;
67892;PMS7003;54688;52.376;16.744;2022-10-16T04:18:21;28;23;
67892;PMS7003;54688;52.376;16.744;2022-10-16T04:21:24;29;24;
67892;PMS7003;54688;52.376;16.744;2022-10-16T04:24:26;24;18;
67892;PMS7003;54688;52.376;16.744;2022-10-16T04:27:28;23;21;
67892;PMS7003;54688;52.376;16.744;2022-10-16T04:30:30;21;19;
67892;PMS7003;54688;52.376;16.744;2022-10-16T04:33:32;30;24;
67892;PMS7003;54688;52.376;16.744;2022-10-16T04:36:35;22;22;
67892;PMS7003;54688;52.376;16.744;2022-10-16T04:39:38;26;24;
67892;PMS7003;54688;52.376;16.744;2022-10-16T04:42:40;25;20;
67892;PMS7003;54688;52.376;16.744;2022-10-16T04:45:42;22;18;
67892;PMS7003;54688;52.376;16.744;2022-10-16T04:48:44;29;26;
67892;PMS7003;54688;52.376;16.744;2022-10-16T04:51:46;25;19;
67892;PMS7003;54688;52.376;16.744;2022-10-16T04:54:48;28;23;
67892;PMS7003;54688;52.376;16.744;2022-10-16T04:57:50;37;30;
67892;PMS7003;54688;52.376;16.744;2022-10-16T05:00:53;27;22;
67892;PMS7003;54688;52.376;16.744;2022-10-16T05:03:55;25;21;
67892;PMS7003;54688;52.376;16.744;2022-10-16T05:06:57;25;24;
67892;PMS7003;54688;52.376;16.744;2022-10-16T05:09:59;28;25;
67892;PMS7003;54688;52.376;16.744;2022-10-16T05:13:02;21;19;
67892;PMS7003;54688;52.376;16.744;2022-10-16T05:16:05;20;17;
67892;PMS7003;54688;52.376;16.744;2022-10-16T05:19:07;31;23;
67892;PMS7003;54688;52.376;16.744;2022-10-16T05:22:09;19;18;
67892;PMS7003;54688;52.376;16.744;2022-10-16T05:25:11;26;20;
67892;PMS7003;54688;52.376;16.744;2022-10-16T05:28:13;25;21;
67892;PMS7003;54688;52.376;16.744;2022-10-16T05:31:15;27;24;
67892;PMS7003;54688;52.376;16.744;2022-10-16T05:34:17;20;20;
67892;PMS7003;54688;52.376;16.744;2022-10-16T05:37:19;25;23;
67892;PMS7003;54688;52.376;16.744;2022-10-16T05:40:21;31;25;
67892;PMS7003;54688;52.376;16.744;2022-10-16T05:43:23;27;27;
67892;PMS7003;54688;52.376;16.744;2022-10-16T05:46:25;25;23;
67892;PMS7003;54688;52.376;16.744;2022-10-16T05:49:27;29;25;
67892;PMS7003;54688;52.376;16.744;2022-10-16T05:52:29;24;21;
67892;PMS7003;54688;52.376;16.744;2022-10-16T05:55:31;23;22;
67892;PMS7003;54688;52.376;16.744;2022-10-16T05:58:34;22;19;
67892;PMS7003;54688;52.376;16.744;2022-10-16T06:01:37;27;25;
67892;PMS7003;54688;52.376;16.744;2022-10-16T06:04:39;22;17;
67892;PMS7003;54688;52.376;16.744;2022-10-16T06:07:40;20;19;
67892;PMS7003;54688;52.376;16.744;2022-10-16T06:10:43;29;28;
67892;PMS7003;54688;52.376;16.744;2022-10-16T06:13:49;18;16;
67892;PMS7003;54688;52.376;16.744;2022-10-16T06:16:52;28;20;
67892;PMS7003;54688;52.376;16.744;2022-10-16T06:19:54;21;19;
67892;PMS7003;54688;52.376;16.744;2022-10-16T06:22:57;29;19;
67892;PMS7003;54688;52.376;16.744;2022-10-16T06:26:04;27;24;
67892;PMS7003;54688;52.376;16.744;2022-10-16T06:29:06;25;20;
67892;PMS7003;54688;52.376;16.744;2022-10-16T06:32:09;27;26;
67892;PMS7003;54688;52.376;16.744;2022-10-16T06:35:11;30;28;
67892;PMS7003;54688;52.376;16.744;2022-10-16T06:38:14;25;21;
67892;PMS7003;54688;52.376;16.744;2022-10-16T06:41:18;36;28;
67892;PMS7003;54688;52.376;16.744;2022-10-16T06:44:19;28;21;
67892;PMS7003;54688;52.376;16.744;2022-10-16T06:47:22;26;24;
67892;PMS7003;54688;52.376;16.744;2022-10-16T06:53:23;27;26;
67892;PMS7003;54688;52.376;16.744;2022-10-16T06:56:27;29;21;
67892;PMS7003;54688;52.376;16.744;2022-10-16T06:59:29;27;23;
67892;PMS7003;54688;52.376;16.744;2022-10-16T07:02:32;22;20;
67892;PMS7003;54688;52.376;16.744;2022-10-16T07:05:37;27;23;
67892;PMS7003;54688;52.376;16.744;2022-10-16T07:08:40;25;24;
67892;PMS7003;54688;52.376;16.744;2022-10-16T07:11:43;22;18;
67892;PMS7003;54688;52.376;16.744;2022-10-16T07:14:45;28;23;
67892;PMS7003;54688;52.376;16.744;2022-10-16T07:17:47;21;19;
67892;PMS7003;54688;52.376;16.744;2022-10-16T07:20:48;31;28;
67892;PMS7003;54688;52.376;16.744;2022-10-16T07:23:51;24;22;
67892;PMS7003;54688;52.376;16.744;2022-10-16T07:26:53;26;20;
67892;PMS7003;54688;52.376;16.744;2022-10-16T07:29:55;27;24;
67892;PMS7003;54688;52.376;16.744;2022-10-16T07:32:57;18;15;
67892;PMS7003;54688;52.376;16.744;2022-10-16T07:35:59;25;20;
67892;PMS7003;54688;52.376;16.744;2022-10-16T07:39:02;25;24;
67892;PMS7003;54688;52.376;16.744;2022-10-16T07:42:05;25;20;
67892;PMS7003;54688;52.376;16.744;2022-10-16T07:45:07;25;22;
67892;PMS7003;54688;52.376;16.744;2022-10-16T07:48:10;23;18;
67892;PMS7003;54688;52.376;16.744;2022-10-16T07:51:16;25;19;
67892;PMS7003;54688;52.376;16.744;2022-10-16T07:54:18;25;22;
67892;PMS7003;54688;52.376;16.744;2022-10-16T07:57:20;27;23;
67892;PMS7003;54688;52.376;16.744;2022-10-16T08:00:22;23;21;
67892;PMS7003;54688;52.376;16.744;2022-10-16T08:03:24;21;20;
67892;PMS7003;54688;52.376;16.744;2022-10-16T08:06:26;27;23;
67892;PMS7003;54688;52.376;16.744;2022-10-16T08:09:28;22;19;
67892;PMS7003;54688;52.376;16.744;2022-10-16T08:12:30;20;19;
67892;PMS7003;54688;52.376;16.744;2022-10-16T08:15:33;24;18;
67892;PMS7003;54688;52.376;16.744;2022-10-16T08:18:35;19;18;
67892;PMS7003;54688;52.376;16.744;2022-10-16T08:21:37;24;22;
67892;PMS7003;54688;52.376;16.744;2022-10-16T08:24:39;25;23;
67892;PMS7003;54688;52.376;16.744;2022-10-16T08:27:42;20;19;
67892;PMS7003;54688;52.376;16.744;2022-10-16T08:30:44;27;22;
67892;PMS7003;54688;52.376;16.744;2022-10-16T08:33:47;21;19;
67892;PMS7003;54688;52.376;16.744;2022-10-16T08:36:48;22;20;
67892;PMS7003;54688;52.376;16.744;2022-10-16T08:39:51;29;22;
67892;PMS7003;54688;52.376;16.744;2022-10-16T08:43:07;19;16;
67892;PMS7003;54688;52.376;16.744;2022-10-16T08:46:24;23;20;
67892;PMS7003;54688;52.376;16.744;2022-10-16T08:49:29;17;17;
67892;PMS7003;54688;52.376;16.744;2022-10-16T08:52:34;18;15;
67892;PMS7003;54688;52.376;16.744;2022-10-16T08:55:41;14;13;
67892;PMS7003;54688;52.376;16.744;2022-10-16T08:58:44;17;15;
67892;PMS7003;54688;52.376;16.744;2022-10-16T09:01:49;22;17;
67892;PMS7003;54688;52.376;16.744;2022-10-16T09:05:05;15;15;
67892;PMS7003;54688;52.376;16.744;2022-10-16T09:08:18;17;13;
67892;PMS7003;54688;52.376;16.744;2022-10-16T09:11:32;21;19;
67892;PMS7003;54688;52.376;16.744;2022-10-16T09:14:43;13;13;
67892;PMS7003;54688;52.376;16.744;2022-10-16T09:17:54;14;12;
67892;PMS7003;54688;52.376;16.744;2022-10-16T09:21:02;20;15;
67892;PMS7003;54688;52.376;16.744;2022-10-16T09:24:12;20;18;
67892;PMS7003;54688;52.376;16.744;2022-10-16T09:27:15;15;12;
67892;PMS7003;54688;52.376;16.744;2022-10-16T09:30:19;13;12;
67892;PMS7003;54688;52.376;16.744;2022-10-16T09:33:24;11;10;
67892;PMS7003;54688;52.376;16.744;2022-10-16T09:36:28;14;13;
67892;PMS7003;54688;52.376;16.744;2022-10-16T09:39:43;13;10;
67892;PMS7003;54688;52.376;16.744;2022-10-16T09:42:47;19;15;
67892;PMS7003;54688;52.376;16.744;2022-10-16T09:45:57;20;17;
67892;PMS7003;54688;52.376;16.744;2022-10-16T09:49:01;15;13;
67892;PMS7003;54688;52.376;16.744;2022-10-16T09:52:04;18;16;
67892;PMS7003;54688;52.376;16.744;2022-10-16T09:55:13;17;15;
67892;PMS7003;54688;52.376;16.744;2022-10-16T09:58:16;15;13;
67892;PMS7003;54688;52.376;16.744;2022-10-16T10:01:18;11;10;
67892;PMS7003;54688;52.376;16.744;2022-10-16T10:04:22;11;10;
67892;PMS7003;54688;52.376;16.744;2022-10-16T10:07:26;12;11;
67892;PMS7003;54688;52.376;16.744;2022-10-16T10:10:30;11;11;
67892;PMS7003;54688;52.376;16.744;2022-10-16T10:13:33;11;11;
67892;PMS7003;54688;52.376;16.744;2022-10-16T10:16:34;10;8;
67892;PMS7003;54688;52.376;16.744;2022-10-16T10:19:38;8;8;
67892;PMS7003;54688;52.376;16.744;2022-10-16T10:22:43;15;10;
67892;PMS7003;54688;52.376;16.744;2022-10-16T10:25:51;11;11;
67892;PMS7003;54688;52.376;16.744;2022-10-16T10:28:59;11;11;
67892;PMS7003;54688;52.376;16.744;2022-10-16T10:32:10;9;8;
67892;PMS7003;54688;52.376;16.744;2022-10-16T10:35:19;11;11;
67892;PMS7003;54688;52.376;16.744;2022-10-16T10:38:30;10;9;
67892;PMS7003;54688;52.376;16.744;2022-10-16T10:41:46;8;8;
67892;PMS7003;54688;52.376;16.744;2022-10-16T10:45:13;10;10;
67892;PMS7003;54688;52.376;16.744;2022-10-16T10:48:28;15;11;
67892;PMS7003;54688;52.376;16.744;2022-10-16T10:51:41;9;8;
67892;PMS7003;54688;52.376;16.744;2022-10-16T10:54:50;14;13;
67892;PMS7003;54688;52.376;16.744;2022-10-16T10:58:08;12;11;
67892;PMS7003;54688;52.376;16.744;2022-10-16T11:01:14;11;9;
67892;PMS7003;54688;52.376;16.744;2022-10-16T11:04:34;12;8;
67892;PMS7003;54688;52.376;16.744;2022-10-16T11:07:48;12;10;
67892;PMS7003;54688;52.376;16.744;2022-10-16T11:10:53;11;11;
67892;PMS7003;54688;52.376;16.744;2022-10-16T11:13:59;9;7;
67892;PMS7003;54688;52.376;16.744;2022-10-16T11:17:05;8;6;
67892;PMS7003;54688;52.376;16.744;2022-10-16T11:20:14;10;9;
67892;PMS7003;54688;52.376;16.744;2022-10-16T11:26:19;7;7;
67892;PMS7003;54688;52.376;16.744;2022-10-16T11:29:24;7;6;
67892;PMS7003;54688;52.376;16.744;2022-10-16T11:32:32;9;6;
67892;PMS7003;54688;52.376;16.744;2022-10-16T11:35:39;7;6;
67892;PMS7003;54688;52.376;16.744;2022-10-16T11:38:50;8;7;
67892;PMS7003;54688;52.376;16.744;2022-10-16T11:41:55;9;9;
67892;PMS7003;54688;52.376;16.744;2022-10-16T11:45:04;7;6;
67892;PMS7003;54688;52.376;16.744;2022-10-16T11:48:20;6;6;
67892;PMS7003;54688;52.376;16.744;2022-10-16T11:51:30;8;5;
67892;PMS7003;54688;52.376;16.744;2022-10-16T11:54:39;9;7;
67892;PMS7003;54688;52.376;16.744;2022-10-16T11:57:47;10;7;
67892;PMS7003;54688;52.376;16.744;2022-10-16T12:00:56;4;4;
67892;PMS7003;54688;52.376;16.744;2022-10-16T12:04:11;5;5;
67892;PMS7003;54688;52.376;16.744;2022-10-16T12:07:19;8;7;
67892;PMS7003;54688;52.376;16.744;2022-10-16T12:10:25;8;7;
67892;PMS7003;54688;52.376;16.744;2022-10-16T12:13:30;5;5;
67892;PMS7003;54688;52.376;16.744;2022-10-16T12:16:33;4;4;
67892;PMS7003;54688;52.376;16.744;2022-10-16T12:19:35;8;5;
67892;PMS7003;54688;52.376;16.744;2022-10-16T12:22:41;6;5;
67892;PMS7003;54688;52.376;16.744;2022-10-16T12:25:53;6;6;
67892;PMS7003;54688;52.376;16.744;2022-10-16T12:29:14;6;6;
67892;PMS7003;54688;52.376;16.744;2022-10-16T12:32:24;5;5;
67892;PMS7003;54688;52.376;16.744;2022-10-16T12:35:30;6;4;
67892;PMS7003;54688;52.376;16.744;2022-10-16T12:38:37;4;4;
67892;PMS7003;54688;52.376;16.744;2022-10-16T12:41:40;7;5;
67892;PMS7003;54688;52.376;16.744;2022-10-16T12:44:41;5;5;
67892;PMS7003;54688;52.376;16.744;2022-10-16T12:47:49;8;5;
67892;PMS7003;54688;52.376;16.744;2022-10-16T12:50:52;6;6;
67892;PMS7003;54688;52.376;16.744;2022-10-16T12:54:01;5;5;
67892;PMS7003;54688;52.376;16.744;2022-10-16T12:57:17;5;5;
67892;PMS7003;54688;52.376;16.744;2022-10-16T13:00:26;6;5;
67892;PMS7003;54688;52.376;16.744;2022-10-16T13:03:47;6;4;
67892;PMS7003;54688;52.376;16.744;2022-10-16T13:07:02;4;4;
67892;PMS7003;54688;52.376;16.744;2022-10-16T13:10:15;7;5;
67892;PMS7003;54688;52.376;16.744;2022-10-16T13:13:39;5;5;
67892;PMS7003;54688;52.376;16.744;2022-10-16T13:16:53;6;5;
67892;PMS7003;54688;52.376;16.744;2022-10-16T13:20:05;7;5;
67892;PMS7003;54688;52.376;16.744;2022-10-16T13:23:17;9;7;
67892;PMS7003;54688;52.376;16.744;2022-10-16T13:26:29;6;6;
67892;PMS7003;54688;52.376;16.744;2022-10-16T13:29:33;13;10;
67892;PMS7003;54688;52.376;16.744;2022-10-16T13:32:35;7;6;
67892;PMS7003;54688;52.376;16.744;2022-10-16T13:35:47;6;4;
67892;PMS7003;54688;52.376;16.744;2022-10-16T13:39:00;6;6;
67892;PMS7003;54688;52.376;16.744;2022-10-16T13:42:04;7;6;
67892;PMS7003;54688;52.376;16.744;2022-10-16T13:45:17;6;6;
67892;PMS7003;54688;52.376;16.744;2022-10-16T13:48:19;7;5;
67892;PMS7003;54688;52.376;16.744;2022-10-16T13:51:22;3;3;
67892;PMS7003;54688;52.376;16.744;2022-10-16T13:54:25;3;3;
67892;PMS7003;54688;52.376;16.744;2022-10-16T13:57:27;4;4;
67892;PMS7003;54688;52.376;16.744;2022-10-16T14:00:28;6;5;
67892;PMS7003;54688;52.376;16.744;2022-10-16T14:03:32;7;6;
67892;PMS7003;54688;52.376;16.744;2022-10-16T14:06:36;7;6;
67892;PMS7003;54688;52.376;16.744;2022-10-16T14:09:38;6;5;
67892;PMS7003;54688;52.376;16.744;2022-10-16T14:12:41;5;5;
67892;PMS7003;54688;52.376;16.744;2022-10-16T14:15:47;4;4;
67892;PMS7003;54688;52.376;16.744;2022-10-16T14:18:56;6;6;
67892;PMS7003;54688;52.376;16.744;2022-10-16T14:22:00;4;4;
67892;PMS7003;54688;52.376;16.744;2022-10-16T14:25:20;6;4;
67892;PMS7003;54688;52.376;16.744;2022-10-16T14:28:24;8;6;
67892;PMS7003;54688;52.376;16.744;2022-10-16T14:31:29;6;5;
67892;PMS7003;54688;52.376;16.744;2022-10-16T14:34:33;9;7;
67892;PMS7003;54688;52.376;16.744;2022-10-16T14:37:35;7;5;
67892;PMS7003;54688;52.376;16.744;2022-10-16T14:40:37;8;7;
67892;PMS7003;54688;52.376;16.744;2022-10-16T14:43:41;12;9;
67892;PMS7003;54688;52.376;16.744;2022-10-16T14:46:43;3;3;
67892;PMS7003;54688;52.376;16.744;2022-10-16T14:49:45;8;8;
67892;PMS7003;54688;52.376;16.744;2022-10-16T14:52:47;9;9;
67892;PMS7003;54688;52.376;16.744;2022-10-16T14:55:50;10;9;
67892;PMS7003;54688;52.376;16.744;2022-10-16T14:58:53;10;8;
67892;PMS7003;54688;52.376;16.744;2022-10-16T15:01:55;5;4;
67892;PMS7003;54688;52.376;16.744;2022-10-16T15:04:58;6;6;
67892;PMS7003;54688;52.376;16.744;2022-10-16T15:08:04;11;9;
67892;PMS7003;54688;52.376;16.744;2022-10-16T15:11:09;11;8;
67892;PMS7003;54688;52.376;16.744;2022-10-16T15:14:13;9;8;
67892;PMS7003;54688;52.376;16.744;2022-10-16T15:17:14;7;7;
67892;PMS7003;54688;52.376;16.744;2022-10-16T15:20:16;6;6;
67892;PMS7003;54688;52.376;16.744;2022-10-16T15:23:21;7;5;
67892;PMS7003;54688;52.376;16.744;2022-10-16T15:26:24;9;9;
67892;PMS7003;54688;52.376;16.744;2022-10-16T15:29:26;12;9;
67892;PMS7003;54688;52.376;16.744;2022-10-16T15:32:28;13;10;
67892;PMS7003;54688;52.376;16.744;2022-10-16T15:35:30;16;12;
67892;PMS7003;54688;52.376;16.744;2022-10-16T15:38:32;13;9;
67892;PMS7003;54688;52.376;16.744;2022-10-16T15:41:34;10;10;
67892;PMS7003;54688;52.376;16.744;2022-10-16T15:44:37;13;12;
67892;PMS7003;54688;52.376;16.744;2022-10-16T15:47:40;16;10;
67892;PMS7003;54688;52.376;16.744;2022-10-16T15:50:42;10;8;
67892;PMS7003;54688;52.376;16.744;2022-10-16T15:53:44;12;10;
67892;PMS7003;54688;52.376;16.744;2022-10-16T15:56:46;11;11;
67892;PMS7003;54688;52.376;16.744;2022-10-16T15:59:48;11;9;
67892;PMS7003;54688;52.376;16.744;2022-10-16T16:02:52;9;9;
67892;PMS7003;54688;52.376;16.744;2022-10-16T16:05:55;11;8;
67892;PMS7003;54688;52.376;16.744;2022-10-16T16:08:58;10;10;
67892;PMS7003;54688;52.376;16.744;2022-10-16T16:12:00;10;10;
67892;PMS7003;54688;52.376;16.744;2022-10-16T16:15:05;11;7;
67892;PMS7003;54688;52.376;16.744;2022-10-16T16:18:07;12;9;
67892;PMS7003;54688;52.376;16.744;2022-10-16T16:21:10;10;8;
67892;PMS7003;54688;52.376;16.744;2022-10-16T16:24:13;14;10;
67892;PMS7003;54688;52.376;16.744;2022-10-16T16:27:15;16;13;
67892;PMS7003;54688;52.376;16.744;2022-10-16T16:30:18;15;14;
67892;PMS7003;54688;52.376;16.744;2022-10-16T16:33:20;17;16;
67892;PMS7003;54688;52.376;16.744;2022-10-16T16:36:22;21;15;
67892;PMS7003;54688;52.376;16.744;2022-10-16T16:39:25;20;17;
67892;PMS7003;54688;52.376;16.744;2022-10-16T16:42:28;17;15;
67892;PMS7003;54688;52.376;16.744;2022-10-16T16:45:30;15;14;
67892;PMS7003;54688;52.376;16.744;2022-10-16T16:48:32;19;17;
67892;PMS7003;54688;52.376;16.744;2022-10-16T16:51:34;19;15;
67892;PMS7003;54688;52.376;16.744;2022-10-16T16:54:36;23;15;
67892;PMS7003;54688;52.376;16.744;2022-10-16T16:57:38;16;14;
67892;PMS7003;54688;52.376;16.744;2022-10-16T17:00:44;47;35;
67892;PMS7003;54688;52.376;16.744;2022-10-16T17:03:48;56;42;
67892;PMS7003;54688;52.376;16.744;2022-10-16T17:06:52;48;37;
67892;PMS7003;54688;52.376;16.744;2022-10-16T17:09:54;45;32;
67892;PMS7003;54688;52.376;16.744;2022-10-16T17:12:56;49;37;
67892;PMS7003;54688;52.376;16.744;2022-10-16T17:15:58;32;29;
67892;PMS7003;54688;52.376;16.744;2022-10-16T17:19:02;39;29;
67892;PMS7003;54688;52.376;16.744;2022-10-16T17:22:04;48;39;
67892;PMS7003;54688;52.376;16.744;2022-10-16T17:25:07;29;27;
67892;PMS7003;54688;52.376;16.744;2022-10-16T17:28:10;32;29;
67892;PMS7003;54688;52.376;16.744;2022-10-16T17:31:14;34;28;
67892;PMS7003;54688;52.376;16.744;2022-10-16T17:34:17;26;22;
67892;PMS7003;54688;52.376;16.744;2022-10-16T17:37:19;27;23;
67892;PMS7003;54688;52.376;16.744;2022-10-16T17:40:20;22;21;
67892;PMS7003;54688;52.376;16.744;2022-10-16T17:43:23;32;27;
67892;PMS7003;54688;52.376;16.744;2022-10-16T17:46:25;38;26;
67892;PMS7003;54688;52.376;16.744;2022-10-16T17:49:27;31;26;
67892;PMS7003;54688;52.376;16.744;2022-10-16T17:52:29;32;31;
67892;PMS7003;54688;52.376;16.744;2022-10-16T17:55:36;41;35;
67892;PMS7003;54688;52.376;16.744;2022-10-16T17:58:39;52;36;
67892;PMS7003;54688;52.376;16.744;2022-10-16T18:04:40;49;39;
67892;PMS7003;54688;52.376;16.744;2022-10-16T18:07:42;44;36;
67892;PMS7003;54688;52.376;16.744;2022-10-16T18:10:45;36;31;
67892;PMS7003;54688;52.376;16.744;2022-10-16T18:13:47;44;35;
67892;PMS7003;54688;52.376;16.744;2022-10-16T18:16:50;40;31;
67892;PMS7003;54688;52.376;16.744;2022-10-16T18:19:52;44;35;
67892;PMS7003;54688;52.376;16.744;2022-10-16T18:22:54;42;33;
67892;PMS7003;54688;52.376;16.744;2022-10-16T18:25:58;41;30;
67892;PMS7003;54688;52.376;16.744;2022-10-16T18:29:00;42;36;
67892;PMS7003;54688;52.376;16.744;2022-10-16T18:32:02;46;38;
67892;PMS7003;54688;52.376;16.744;2022-10-16T18:35:05;48;37;
67892;PMS7003;54688;52.376;16.744;2022-10-16T18:38:07;34;30;
67892;PMS7003;54688;52.376;16.744;2022-10-16T18:41:09;41;35;
67892;PMS7003;54688;52.376;16.744;2022-10-16T18:44:11;40;32;
67892;PMS7003;54688;52.376;16.744;2022-10-16T18:47:14;47;38;
67892;PMS7003;54688;52.376;16.744;2022-10-16T18:50:16;47;39;
67892;PMS7003;54688;52.376;16.744;2022-10-16T18:53:19;41;34;
67892;PMS7003;54688;52.376;16.744;2022-10-16T18:56:22;47;37;
67892;PMS7003;54688;52.376;16.744;2022-10-16T18:59:24;45;35;
67892;PMS7003;54688;52.376;16.744;2022-10-16T19:02:26;43;33;
67892;PMS7003;54688;52.376;16.744;2022-10-16T19:05:27;44;35;
67892;PMS7003;54688;52.376;16.744;2022-10-16T19:08:30;47;34;
67892;PMS7003;54688;52.376;16.744;2022-10-16T19:11:32;37;33;
67892;PMS7003;54688;52.376;16.744;2022-10-16T19:14:35;38;32;
67892;PMS7003;54688;52.376;16.744;2022-10-16T19:17:37;45;36;
67892;PMS7003;54688;52.376;16.744;2022-10-16T19:20:39;41;32;
67892;PMS7003;54688;52.376;16.744;2022-10-16T19:23:41;38;32;
67892;PMS7003;54688;52.376;16.744;2022-10-16T19:26:44;40;32;
67892;PMS7003;54688;52.376;16.744;2022-10-16T19:29:47;41;32;
67892;PMS7003;54688;52.376;16.744;2022-10-16T19:32:49;44;37;
67892;PMS7003;54688;52.376;16.744;2022-10-16T19:35:51;38;34;
67892;PMS7003;54688;52.376;16.744;2022-10-16T19:38:55;45;36;
67892;PMS7003;54688;52.376;16.744;2022-10-16T19:41:57;44;35;
67892;PMS7003;54688;52.376;16.744;2022-10-16T19:44:59;52;39;
67892;PMS7003;54688;52.376;16.744;2022-10-16T19:48:00;70;52;
67892;PMS7003;54688;52.376;16.744;2022-10-16T19:51:03;67;52;
67892;PMS7003;54688;52.376;16.744;2022-10-16T19:54:07;58;45;
67892;PMS7003;54688;52.376;16.744;2022-10-16T19:57:11;56;43;
67892;PMS7003;54688;52.376;16.744;2022-10-16T20:00:14;52;40;
67892;PMS7003;54688;52.376;16.744;2022-10-16T20:03:16;51;40;
67892;PMS7003;54688;52.376;16.744;2022-10-16T20:06:18;55;41;
67892;PMS7003;54688;52.376;16.744;2022-10-16T20:09:20;49;39;
67892;PMS7003;54688;52.376;16.744;2022-10-16T20:12:22;61;44;
67892;PMS7003;54688;52.376;16.744;2022-10-16T20:15:23;52;43;
67892;PMS7003;54688;52.376;16.744;2022-10-16T20:18:26;53;41;
67892;PMS7003;54688;52.376;16.744;2022-10-16T20:21:30;52;41;